sensor_id;sensor_type;location;lat;lon;timestamp;temperature;humidity
67769;DHT22;54569;52.018;5.584;2022-10-16T00:01:59;13.40;87.60
67769;DHT22;54569;52.018;5.584;2022-10-16T00:04:25;13.40;87.70
67769;DHT22;54569;52.018;5.584;2022-10-16T00:06:50;13.40;87.80
67769;DHT22;54569;52.018;5.584;2022-10-16T00:09:16;13.30;87.80
67769;DHT22;54569;52.018;5.584;2022-10-16T00:11:41;13.30;87.90
67769;DHT22;54569;52.018;5.584;2022-10-16T00:14:11;13.30;87.90
67769;DHT22;54569;52.018;5.584;2022-10-16T00:16:37;13.30;88.00
67769;DHT22;54569;52.018;5.584;2022-10-16T00:19:03;13.30;88.10
67769;DHT22;54569;52.018;5.584;2022-10-16T00:21:30;13.30;88.10
67769;DHT22;54569;52.018;5.584;2022-10-16T00:23:58;13.20;88.20
67769;DHT22;54569;52.018;5.584;2022-10-16T00:26:27;13.20;88.20
67769;DHT22;54569;52.018;5.584;2022-10-16T00:28:53;13.20;88.20
67769;DHT22;54569;52.018;5.584;2022-10-16T00:31:21;13.20;88.30
67769;DHT22;54569;52.018;5.584;2022-10-16T00:33:47;13.20;88.30
67769;DHT22;54569;52.018;5.584;2022-10-16T00:36:15;13.20;88.40
67769;DHT22;54569;52.018;5.584;2022-10-16T00:38:42;13.20;88.30
67769;DHT22;54569;52.018;5.584;2022-10-16T00:41:14;13.20;88.30
67769;DHT22;54569;52.018;5.584;2022-10-16T00:43:44;13.20;88.30
67769;DHT22;54569;52.018;5.584;2022-10-16T00:46:20;13.20;88.30
67769;DHT22;54569;52.018;5.584;2022-10-16T00:49:05;13.30;88.20
67769;DHT22;54569;52.018;5.584;2022-10-16T00:51:37;13.30;88.40
67769;DHT22;54569;52.018;5.584;2022-10-16T00:54:10;13.30;88.30
67769;DHT22;54569;52.018;5.584;2022-10-16T00:56:37;13.30;88.20
67769;DHT22;54569;52.018;5.584;2022-10-16T00:59:14;13.30;88.10
67769;DHT22;54569;52.018;5.584;2022-10-16T01:01:40;13.40;88.70
67769;DHT22;54569;52.018;5.584;2022-10-16T01:04:06;13.40;88.00
67769;DHT22;54569;52.018;5.584;2022-10-16T01:09:28;13.50;88.10
67769;DHT22;54569;52.018;5.584;2022-10-16T01:14:53;13.50;87.80
67769;DHT22;54569;52.018;5.584;2022-10-16T01:17:23;13.60;87.90
67769;DHT22;54569;52.018;5.584;2022-10-16T01:23:21;13.60;87.80
67769;DHT22;54569;52.018;5.584;2022-10-16T01:28:37;13.60;88.30
67769;DHT22;54569;52.018;5.584;2022-10-16T01:31:04;13.60;89.10
67769;DHT22;54569;52.018;5.584;2022-10-16T01:33:42;13.60;88.00
67769;DHT22;54569;52.018;5.584;2022-10-16T01:36:21;13.60;88.20
67769;DHT22;54569;52.018;5.584;2022-10-16T01:38:51;13.60;88.00
67769;DHT22;54569;52.018;5.584;2022-10-16T01:41:21;13.70;88.00
67769;DHT22;54569;52.018;5.584;2022-10-16T01:46:41;13.70;87.90
67769;DHT22;54569;52.018;5.584;2022-10-16T01:49:09;13.70;88.00
67769;DHT22;54569;52.018;5.584;2022-10-16T01:51:37;13.70;88.00
67769;DHT22;54569;52.018;5.584;2022-10-16T01:54:06;13.70;88.10
67769;DHT22;54569;52.018;5.584;2022-10-16T01:56:32;13.70;88.10
67769;DHT22;54569;52.018;5.584;2022-10-16T01:59:00;13.70;88.30
67769;DHT22;54569;52.018;5.584;2022-10-16T02:01:30;13.70;88.40
67769;DHT22;54569;52.018;5.584;2022-10-16T02:04:00;13.70;88.40
67769;DHT22;54569;52.018;5.584;2022-10-16T02:06:27;13.60;88.60
67769;DHT22;54569;52.018;5.584;2022-10-16T02:08:53;13.60;88.60
67769;DHT22;54569;52.018;5.584;2022-10-16T02:11:19;13.60;88.70
67769;DHT22;54569;52.018;5.584;2022-10-16T02:14:04;13.60;88.90
67769;DHT22;54569;52.018;5.584;2022-10-16T02:16:42;13.60;89.80
67769;DHT22;54569;52.018;5.584;2022-10-16T02:19:12;13.50;89.20
67769;DHT22;54569;52.018;5.584;2022-10-16T02:21:40;13.50;89.30
67769;DHT22;54569;52.018;5.584;2022-10-16T02:24:31;13.50;89.40
67769;DHT22;54569;52.018;5.584;2022-10-16T02:27:10;13.50;89.70
67769;DHT22;54569;52.018;5.584;2022-10-16T02:29:43;13.50;89.70
67769;DHT22;54569;52.018;5.584;2022-10-16T02:32:11;13.50;89.70
67769;DHT22;54569;52.018;5.584;2022-10-16T02:34:38;13.50;89.70
67769;DHT22;54569;52.018;5.584;2022-10-16T02:37:05;13.50;89.90
67769;DHT22;54569;52.018;5.584;2022-10-16T02:39:32;13.50;89.80
67769;DHT22;54569;52.018;5.584;2022-10-16T02:41:59;13.50;90.00
67769;DHT22;54569;52.018;5.584;2022-10-16T02:44:24;13.50;90.00
67769;DHT22;54569;52.018;5.584;2022-10-16T02:46:50;13.50;89.90
67769;DHT22;54569;52.018;5.584;2022-10-16T02:49:16;13.50;89.90
67769;DHT22;54569;52.018;5.584;2022-10-16T02:51:42;13.50;90.00
67769;DHT22;54569;52.018;5.584;2022-10-16T02:54:07;13.50;90.00
67769;DHT22;54569;52.018;5.584;2022-10-16T02:56:33;13.50;90.00
67769;DHT22;54569;52.018;5.584;2022-10-16T02:58:59;13.50;89.80
67769;DHT22;54569;52.018;5.584;2022-10-16T03:01:24;13.50;90.20
67769;DHT22;54569;52.018;5.584;2022-10-16T03:03:50;13.50;89.70
67769;DHT22;54569;52.018;5.584;2022-10-16T03:06:16;13.50;89.80
67769;DHT22;54569;52.018;5.584;2022-10-16T03:08:41;13.50;90.00
67769;DHT22;54569;52.018;5.584;2022-10-16T03:11:07;13.50;90.00
67769;DHT22;54569;52.018;5.584;2022-10-16T03:13:33;13.40;90.10
67769;DHT22;54569;52.018;5.584;2022-10-16T03:15:58;13.40;90.30
67769;DHT22;54569;52.018;5.584;2022-10-16T03:18:24;13.40;90.30
67769;DHT22;54569;52.018;5.584;2022-10-16T03:20:49;13.30;90.30
67769;DHT22;54569;52.018;5.584;2022-10-16T03:23:15;13.30;90.40
67769;DHT22;54569;52.018;5.584;2022-10-16T03:25:41;13.30;90.40
67769;DHT22;54569;52.018;5.584;2022-10-16T03:28:06;13.30;90.40
67769;DHT22;54569;52.018;5.584;2022-10-16T03:30:32;13.30;90.40
67769;DHT22;54569;52.018;5.584;2022-10-16T03:32:58;13.30;90.40
67769;DHT22;54569;52.018;5.584;2022-10-16T03:35:24;13.30;90.40
67769;DHT22;54569;52.018;5.584;2022-10-16T03:37:50;13.30;90.40
67769;DHT22;54569;52.018;5.584;2022-10-16T03:40:16;13.30;90.40
67769;DHT22;54569;52.018;5.584;2022-10-16T03:42:43;13.30;90.40
67769;DHT22;54569;52.018;5.584;2022-10-16T03:45:09;13.30;90.40
67769;DHT22;54569;52.018;5.584;2022-10-16T03:47:36;13.30;90.40
67769;DHT22;54569;52.018;5.584;2022-10-16T03:50:02;13.30;90.50
67769;DHT22;54569;52.018;5.584;2022-10-16T03:52:28;13.30;90.50
67769;DHT22;54569;52.018;5.584;2022-10-16T03:54:54;13.30;90.50
67769;DHT22;54569;52.018;5.584;2022-10-16T03:57:19;13.30;90.50
67769;DHT22;54569;52.018;5.584;2022-10-16T03:59:46;13.30;90.50
67769;DHT22;54569;52.018;5.584;2022-10-16T04:02:12;13.20;90.50
67769;DHT22;54569;52.018;5.584;2022-10-16T04:04:38;13.20;90.50
67769;DHT22;54569;52.018;5.584;2022-10-16T04:07:03;13.20;90.60
67769;DHT22;54569;52.018;5.584;2022-10-16T04:09:29;13.20;90.60
67769;DHT22;54569;52.018;5.584;2022-10-16T04:11:55;13.20;90.60
67769;DHT22;54569;52.018;5.584;2022-10-16T04:14:20;13.20;90.70
67769;DHT22;54569;52.018;5.584;2022-10-16T04:16:46;13.20;90.50
67769;DHT22;54569;52.018;5.584;2022-10-16T04:19:12;13.20;90.50
67769;DHT22;54569;52.018;5.584;2022-10-16T04:21:37;13.20;90.60
67769;DHT22;54569;52.018;5.584;2022-10-16T04:24:03;13.20;90.60
67769;DHT22;54569;52.018;5.584;2022-10-16T04:26:29;13.20;90.50
67769;DHT22;54569;52.018;5.584;2022-10-16T04:28:55;13.20;90.60
67769;DHT22;54569;52.018;5.584;2022-10-16T04:31:21;13.20;90.60
67769;DHT22;54569;52.018;5.584;2022-10-16T04:33:46;13.20;90.50
67769;DHT22;54569;52.018;5.584;2022-10-16T04:36:12;13.20;90.60
67769;DHT22;54569;52.018;5.584;2022-10-16T04:38:38;13.20;90.60
67769;DHT22;54569;52.018;5.584;2022-10-16T04:41:05;13.20;90.60
67769;DHT22;54569;52.018;5.584;2022-10-16T04:43:32;13.20;90.70
67769;DHT22;54569;52.018;5.584;2022-10-16T04:45:58;13.20;90.70
67769;DHT22;54569;52.018;5.584;2022-10-16T04:48:23;13.20;90.80
67769;DHT22;54569;52.018;5.584;2022-10-16T04:50:49;13.20;90.80
67769;DHT22;54569;52.018;5.584;2022-10-16T04:53:15;13.10;90.80
67769;DHT22;54569;52.018;5.584;2022-10-16T04:55:41;13.10;90.80
67769;DHT22;54569;52.018;5.584;2022-10-16T04:58:07;13.10;90.80
67769;DHT22;54569;52.018;5.584;2022-10-16T05:00:33;13.00;91.00
67769;DHT22;54569;52.018;5.584;2022-10-16T05:02:59;13.00;91.00
67769;DHT22;54569;52.018;5.584;2022-10-16T05:05:26;13.00;91.20
67769;DHT22;54569;52.018;5.584;2022-10-16T05:07:52;13.00;91.20
67769;DHT22;54569;52.018;5.584;2022-10-16T05:10:18;12.90;91.20
67769;DHT22;54569;52.018;5.584;2022-10-16T05:12:43;12.90;91.30
67769;DHT22;54569;52.018;5.584;2022-10-16T05:15:09;12.90;91.30
67769;DHT22;54569;52.018;5.584;2022-10-16T05:17:35;12.80;91.20
67769;DHT22;54569;52.018;5.584;2022-10-16T05:20:01;12.80;91.40
67769;DHT22;54569;52.018;5.584;2022-10-16T05:22:27;12.80;91.40
67769;DHT22;54569;52.018;5.584;2022-10-16T05:24:52;12.80;91.70
67769;DHT22;54569;52.018;5.584;2022-10-16T05:27:18;12.80;91.40
67769;DHT22;54569;52.018;5.584;2022-10-16T05:29:48;12.70;91.50
67769;DHT22;54569;52.018;5.584;2022-10-16T05:32:18;12.70;91.60
67769;DHT22;54569;52.018;5.584;2022-10-16T05:34:44;12.70;91.60
67769;DHT22;54569;52.018;5.584;2022-10-16T05:37:10;12.70;91.70
67769;DHT22;54569;52.018;5.584;2022-10-16T05:39:37;12.70;91.60
67769;DHT22;54569;52.018;5.584;2022-10-16T05:42:04;12.70;91.70
67769;DHT22;54569;52.018;5.584;2022-10-16T05:44:30;12.70;91.60
67769;DHT22;54569;52.018;5.584;2022-10-16T05:46:55;12.70;91.60
67769;DHT22;54569;52.018;5.584;2022-10-16T05:49:21;12.80;91.60
67769;DHT22;54569;52.018;5.584;2022-10-16T05:51:47;12.80;91.60
67769;DHT22;54569;52.018;5.584;2022-10-16T05:54:13;12.80;91.60
67769;DHT22;54569;52.018;5.584;2022-10-16T05:56:38;12.80;91.60
67769;DHT22;54569;52.018;5.584;2022-10-16T05:59:04;12.80;91.50
67769;DHT22;54569;52.018;5.584;2022-10-16T06:01:30;12.80;91.50
67769;DHT22;54569;52.018;5.584;2022-10-16T06:03:57;12.90;91.40
67769;DHT22;54569;52.018;5.584;2022-10-16T06:06:25;12.90;91.50
67769;DHT22;54569;52.018;5.584;2022-10-16T06:08:52;12.90;91.50
67769;DHT22;54569;52.018;5.584;2022-10-16T06:11:22;12.90;91.40
67769;DHT22;54569;52.018;5.584;2022-10-16T06:13:56;12.90;91.30
67769;DHT22;54569;52.018;5.584;2022-10-16T06:16:23;13.00;91.40
67769;DHT22;54569;52.018;5.584;2022-10-16T06:18:51;13.00;92.40
67769;DHT22;54569;52.018;5.584;2022-10-16T06:21:19;13.00;91.30
67769;DHT22;54569;52.018;5.584;2022-10-16T06:23:45;13.00;91.30
67769;DHT22;54569;52.018;5.584;2022-10-16T06:26:17;13.00;91.30
67769;DHT22;54569;52.018;5.584;2022-10-16T06:28:43;13.10;91.30
67769;DHT22;54569;52.018;5.584;2022-10-16T06:31:12;13.10;91.20
67769;DHT22;54569;52.018;5.584;2022-10-16T06:33:50;13.10;91.20
67769;DHT22;54569;52.018;5.584;2022-10-16T06:36:17;13.10;91.10
67769;DHT22;54569;52.018;5.584;2022-10-16T06:38:43;13.10;91.10
67769;DHT22;54569;52.018;5.584;2022-10-16T06:41:14;13.20;91.10
67769;DHT22;54569;52.018;5.584;2022-10-16T06:43:42;13.20;91.10
67769;DHT22;54569;52.018;5.584;2022-10-16T06:46:12;13.20;91.10
67769;DHT22;54569;52.018;5.584;2022-10-16T06:48:39;13.30;91.10
67769;DHT22;54569;52.018;5.584;2022-10-16T06:51:08;13.30;91.10
67769;DHT22;54569;52.018;5.584;2022-10-16T06:53:36;13.30;91.10
67769;DHT22;54569;52.018;5.584;2022-10-16T06:58:33;13.30;91.00
67769;DHT22;54569;52.018;5.584;2022-10-16T07:00:59;13.40;91.00
67769;DHT22;54569;52.018;5.584;2022-10-16T07:03:25;13.40;90.90
67769;DHT22;54569;52.018;5.584;2022-10-16T07:05:50;13.50;90.90
67769;DHT22;54569;52.018;5.584;2022-10-16T07:08:16;13.60;90.70
67769;DHT22;54569;52.018;5.584;2022-10-16T07:10:42;13.70;90.50
67769;DHT22;54569;52.018;5.584;2022-10-16T07:13:07;13.80;90.30
67769;DHT22;54569;52.018;5.584;2022-10-16T07:15:33;14.00;90.00
67769;DHT22;54569;52.018;5.584;2022-10-16T07:17:59;14.50;88.50
67769;DHT22;54569;52.018;5.584;2022-10-16T07:20:25;15.00;86.70
67769;DHT22;54569;52.018;5.584;2022-10-16T07:22:51;15.50;84.50
67769;DHT22;54569;52.018;5.584;2022-10-16T07:25:17;15.60;83.30
67769;DHT22;54569;52.018;5.584;2022-10-16T07:27:43;15.40;83.60
67769;DHT22;54569;52.018;5.584;2022-10-16T07:30:09;15.20;84.40
67769;DHT22;54569;52.018;5.584;2022-10-16T07:32:35;15.00;86.10
67769;DHT22;54569;52.018;5.584;2022-10-16T07:35:01;14.80;86.70
67769;DHT22;54569;52.018;5.584;2022-10-16T07:37:26;14.80;87.40
67769;DHT22;54569;52.018;5.584;2022-10-16T07:39:52;16.10;85.10
67769;DHT22;54569;52.018;5.584;2022-10-16T07:42:17;16.90;80.50
67769;DHT22;54569;52.018;5.584;2022-10-16T07:44:43;17.00;79.20
67769;DHT22;54569;52.018;5.584;2022-10-16T07:47:09;16.80;79.30
67769;DHT22;54569;52.018;5.584;2022-10-16T07:49:34;16.40;80.50
67769;DHT22;54569;52.018;5.584;2022-10-16T07:52:00;16.10;82.20
67769;DHT22;54569;52.018;5.584;2022-10-16T07:54:28;15.90;83.20
67769;DHT22;54569;52.018;5.584;2022-10-16T07:56:54;15.80;84.00
67769;DHT22;54569;52.018;5.584;2022-10-16T07:59:20;15.90;84.10
67769;DHT22;54569;52.018;5.584;2022-10-16T08:01:46;15.80;84.20
67769;DHT22;54569;52.018;5.584;2022-10-16T08:04:11;15.60;84.50
67769;DHT22;54569;52.018;5.584;2022-10-16T08:06:39;15.60;85.10
67769;DHT22;54569;52.018;5.584;2022-10-16T08:09:06;15.70;85.30
67769;DHT22;54569;52.018;5.584;2022-10-16T08:11:31;17.00;82.60
67769;DHT22;54569;52.018;5.584;2022-10-16T08:13:57;18.10;77.40
67769;DHT22;54569;52.018;5.584;2022-10-16T08:16:23;19.30;74.30
67769;DHT22;54569;52.018;5.584;2022-10-16T08:18:49;21.20;69.80
67769;DHT22;54569;52.018;5.584;2022-10-16T08:21:18;23.00;65.10
67769;DHT22;54569;52.018;5.584;2022-10-16T08:23:44;24.80;60.90
67769;DHT22;54569;52.018;5.584;2022-10-16T08:26:10;26.40;58.50
67769;DHT22;54569;52.018;5.584;2022-10-16T08:28:36;27.80;55.70
67769;DHT22;54569;52.018;5.584;2022-10-16T08:31:10;28.90;54.30
67769;DHT22;54569;52.018;5.584;2022-10-16T08:33:37;29.90;52.50
67769;DHT22;54569;52.018;5.584;2022-10-16T08:36:04;30.70;52.40
67769;DHT22;54569;52.018;5.584;2022-10-16T08:38:30;31.10;51.80
67769;DHT22;54569;52.018;5.584;2022-10-16T08:44:18;31.40;51.20
67769;DHT22;54569;52.018;5.584;2022-10-16T08:49:37;33.10;47.20
67769;DHT22;54569;52.018;5.584;2022-10-16T08:52:03;33.40;49.90
67769;DHT22;54569;52.018;5.584;2022-10-16T08:54:37;33.40;49.90
67769;DHT22;54569;52.018;5.584;2022-10-16T08:57:17;33.60;48.00
67769;DHT22;54569;52.018;5.584;2022-10-16T08:59:44;33.70;45.40
67769;DHT22;54569;52.018;5.584;2022-10-16T09:02:36;33.80;50.00
67769;DHT22;54569;52.018;5.584;2022-10-16T09:05:22;33.90;41.40
67769;DHT22;54569;52.018;5.584;2022-10-16T09:10:30;34.00;49.70
67769;DHT22;54569;52.018;5.584;2022-10-16T09:16:12;34.20;42.20
67769;DHT22;54569;52.018;5.584;2022-10-16T09:19:01;34.30;48.20
67769;DHT22;54569;52.018;5.584;2022-10-16T09:21:36;35.10;43.60
67769;DHT22;54569;52.018;5.584;2022-10-16T09:24:13;35.70;44.00
67769;DHT22;54569;52.018;5.584;2022-10-16T09:26:39;36.10;43.20
67769;DHT22;54569;52.018;5.584;2022-10-16T09:29:05;35.90;46.60
67769;DHT22;54569;52.018;5.584;2022-10-16T09:31:31;36.30;45.80
67769;DHT22;54569;52.018;5.584;2022-10-16T09:34:02;36.20;45.30
67769;DHT22;54569;52.018;5.584;2022-10-16T09:36:38;36.30;39.50
67769;DHT22;54569;52.018;5.584;2022-10-16T09:39:05;36.70;44.00
67769;DHT22;54569;52.018;5.584;2022-10-16T09:41:35;37.20;36.10
67769;DHT22;54569;52.018;5.584;2022-10-16T09:44:03;38.30;43.50
67769;DHT22;54569;52.018;5.584;2022-10-16T09:46:35;38.90;42.10
67769;DHT22;54569;52.018;5.584;2022-10-16T09:49:23;38.80;38.90
67769;DHT22;54569;52.018;5.584;2022-10-16T09:51:50;38.60;37.20
67769;DHT22;54569;52.018;5.584;2022-10-16T09:54:18;38.20;42.80
67769;DHT22;54569;52.018;5.584;2022-10-16T09:56:45;38.00;42.40
67769;DHT22;54569;52.018;5.584;2022-10-16T10:01:51;37.40;43.40
67769;DHT22;54569;52.018;5.584;2022-10-16T10:04:18;37.10;40.50
67769;DHT22;54569;52.018;5.584;2022-10-16T10:06:46;37.50;42.20
67769;DHT22;54569;52.018;5.584;2022-10-16T10:14:21;37.50;41.30
67769;DHT22;54569;52.018;5.584;2022-10-16T10:16:48;37.70;39.30
67769;DHT22;54569;52.018;5.584;2022-10-16T10:19:20;38.30;40.30
67769;DHT22;54569;52.018;5.584;2022-10-16T10:21:48;38.60;37.80
67769;DHT22;54569;52.018;5.584;2022-10-16T10:24:15;37.10;41.50
67769;DHT22;54569;52.018;5.584;2022-10-16T10:26:49;36.00;42.60
67769;DHT22;54569;52.018;5.584;2022-10-16T10:29:49;35.50;41.70
67769;DHT22;54569;52.018;5.584;2022-10-16T10:32:34;34.70;37.30
67769;DHT22;54569;52.018;5.584;2022-10-16T10:35:12;33.50;36.70
67769;DHT22;54569;52.018;5.584;2022-10-16T10:40:34;32.50;45.60
67769;DHT22;54569;52.018;5.584;2022-10-16T10:43:25;31.80;41.10
67769;DHT22;54569;52.018;5.584;2022-10-16T10:46:05;31.80;41.20
67769;DHT22;54569;52.018;5.584;2022-10-16T10:51:36;31.90;37.80
67769;DHT22;54569;52.018;5.584;2022-10-16T10:54:13;31.70;37.30
67769;DHT22;54569;52.018;5.584;2022-10-16T10:56:51;30.90;44.90
67769;DHT22;54569;52.018;5.584;2022-10-16T11:04:53;31.20;42.60
67769;DHT22;54569;52.018;5.584;2022-10-16T11:07:27;32.10;42.30
67769;DHT22;54569;52.018;5.584;2022-10-16T11:10:09;33.20;39.30
67769;DHT22;54569;52.018;5.584;2022-10-16T11:12:42;33.70;40.00
67769;DHT22;54569;52.018;5.584;2022-10-16T11:15:16;33.50;39.60
67769;DHT22;54569;52.018;5.584;2022-10-16T11:17:49;33.80;37.90
67769;DHT22;54569;52.018;5.584;2022-10-16T11:20:29;33.40;38.70
67769;DHT22;54569;52.018;5.584;2022-10-16T11:23:46;32.30;33.90
67769;DHT22;54569;52.018;5.584;2022-10-16T11:25:47;31.30;42.30
67769;DHT22;54569;52.018;5.584;2022-10-16T11:28:20;30.30;44.10
67769;DHT22;54569;52.018;5.584;2022-10-16T11:30:54;29.50;44.20
67769;DHT22;54569;52.018;5.584;2022-10-16T11:33:32;28.80;45.30
67769;DHT22;54569;52.018;5.584;2022-10-16T11:36:23;28.40;42.30
67769;DHT22;54569;52.018;5.584;2022-10-16T11:41:37;28.30;41.70
67769;DHT22;54569;52.018;5.584;2022-10-16T11:49:53;27.30;43.50
67769;DHT22;54569;52.018;5.584;2022-10-16T11:52:25;27.00;46.90
67769;DHT22;54569;52.018;5.584;2022-10-16T11:57:51;25.90;44.30
67769;DHT22;54569;52.018;5.584;2022-10-16T12:00:28;25.20;47.40
67769;DHT22;54569;52.018;5.584;2022-10-16T12:06:23;25.00;43.80
67769;DHT22;54569;52.018;5.584;2022-10-16T12:08:52;24.60;48.00
67769;DHT22;54569;52.018;5.584;2022-10-16T12:16:58;25.10;44.50
67769;DHT22;54569;52.018;5.584;2022-10-16T12:19:27;25.00;44.50
67769;DHT22;54569;52.018;5.584;2022-10-16T12:21:59;25.00;46.90
67769;DHT22;54569;52.018;5.584;2022-10-16T12:24:39;25.20;47.20
67769;DHT22;54569;52.018;5.584;2022-10-16T12:27:29;25.20;45.80
67769;DHT22;54569;52.018;5.584;2022-10-16T12:30:06;24.80;45.70
67769;DHT22;54569;52.018;5.584;2022-10-16T12:32:37;24.40;46.60
67769;DHT22;54569;52.018;5.584;2022-10-16T12:35:16;23.90;48.00
67769;DHT22;54569;52.018;5.584;2022-10-16T12:37:44;23.30;46.20
67769;DHT22;54569;52.018;5.584;2022-10-16T12:40:26;23.00;50.20
67769;DHT22;54569;52.018;5.584;2022-10-16T12:42:53;22.80;48.50
67769;DHT22;54569;52.018;5.584;2022-10-16T12:47:57;23.10;48.10
67769;DHT22;54569;52.018;5.584;2022-10-16T12:52:53;22.90;49.40
67769;DHT22;54569;52.018;5.584;2022-10-16T12:55:20;22.70;49.80
67769;DHT22;54569;52.018;5.584;2022-10-16T13:09:18;22.20;49.20
67769;DHT22;54569;52.018;5.584;2022-10-16T13:18:35;22.50;49.30
67769;DHT22;54569;52.018;5.584;2022-10-16T13:29:22;22.30;49.60
67769;DHT22;54569;52.018;5.584;2022-10-16T13:31:48;22.20;49.50
67769;DHT22;54569;52.018;5.584;2022-10-16T13:34:17;22.10;49.60
67769;DHT22;54569;52.018;5.584;2022-10-16T13:36:51;22.10;49.90
67769;DHT22;54569;52.018;5.584;2022-10-16T13:39:27;22.00;49.60
67769;DHT22;54569;52.018;5.584;2022-10-16T13:42:06;21.90;49.80
67769;DHT22;54569;52.018;5.584;2022-10-16T13:44:40;21.90;49.80
67769;DHT22;54569;52.018;5.584;2022-10-16T13:47:19;21.90;50.30
67769;DHT22;54569;52.018;5.584;2022-10-16T13:49:45;21.90;51.00
67769;DHT22;54569;52.018;5.584;2022-10-16T13:52:20;21.80;50.40
67769;DHT22;54569;52.018;5.584;2022-10-16T13:54:47;21.70;50.10
67769;DHT22;54569;52.018;5.584;2022-10-16T13:57:17;21.70;50.90
67769;DHT22;54569;52.018;5.584;2022-10-16T13:59:43;21.70;50.80
67769;DHT22;54569;52.018;5.584;2022-10-16T14:02:33;21.60;51.00
67769;DHT22;54569;52.018;5.584;2022-10-16T14:05:01;21.60;50.80
67769;DHT22;54569;52.018;5.584;2022-10-16T14:07:30;21.50;51.40
67769;DHT22;54569;52.018;5.584;2022-10-16T14:10:01;21.50;51.40
67769;DHT22;54569;52.018;5.584;2022-10-16T14:12:28;21.50;51.20
67769;DHT22;54569;52.018;5.584;2022-10-16T14:14:54;21.40;51.20
67769;DHT22;54569;52.018;5.584;2022-10-16T14:17:33;21.30;51.30
67769;DHT22;54569;52.018;5.584;2022-10-16T14:20:00;21.30;51.20
67769;DHT22;54569;52.018;5.584;2022-10-16T14:22:39;21.20;51.30
67769;DHT22;54569;52.018;5.584;2022-10-16T14:28:18;21.10;50.60
67769;DHT22;54569;52.018;5.584;2022-10-16T14:31:01;21.00;50.60
67769;DHT22;54569;52.018;5.584;2022-10-16T14:36:15;20.90;51.80
67769;DHT22;54569;52.018;5.584;2022-10-16T14:41:21;20.80;51.20
67769;DHT22;54569;52.018;5.584;2022-10-16T14:43:52;20.70;51.80
67769;DHT22;54569;52.018;5.584;2022-10-16T14:46:21;20.70;51.90
67769;DHT22;54569;52.018;5.584;2022-10-16T14:48:59;20.50;52.30
67769;DHT22;54569;52.018;5.584;2022-10-16T14:51:26;20.50;52.40
67769;DHT22;54569;52.018;5.584;2022-10-16T14:53:51;20.40;52.50
67769;DHT22;54569;52.018;5.584;2022-10-16T14:56:27;20.40;52.60
67769;DHT22;54569;52.018;5.584;2022-10-16T14:58:54;20.40;52.40
67769;DHT22;54569;52.018;5.584;2022-10-16T15:01:20;20.40;52.70
67769;DHT22;54569;52.018;5.584;2022-10-16T15:03:46;20.40;52.70
67769;DHT22;54569;52.018;5.584;2022-10-16T15:06:14;20.40;52.70
67769;DHT22;54569;52.018;5.584;2022-10-16T15:08:41;20.40;52.70
67769;DHT22;54569;52.018;5.584;2022-10-16T15:11:14;20.40;52.90
67769;DHT22;54569;52.018;5.584;2022-10-16T15:13:42;20.40;52.80
67769;DHT22;54569;52.018;5.584;2022-10-16T15:16:16;20.30;53.10
67769;DHT22;54569;52.018;5.584;2022-10-16T15:18:42;20.30;53.40
67769;DHT22;54569;52.018;5.584;2022-10-16T15:21:08;20.30;53.60
67769;DHT22;54569;52.018;5.584;2022-10-16T15:23:34;20.30;53.80
67769;DHT22;54569;52.018;5.584;2022-10-16T15:26:00;20.20;53.80
67769;DHT22;54569;52.018;5.584;2022-10-16T15:28:26;20.20;54.00
67769;DHT22;54569;52.018;5.584;2022-10-16T15:30:53;20.10;54.10
67769;DHT22;54569;52.018;5.584;2022-10-16T15:33:28;20.10;54.30
67769;DHT22;54569;52.018;5.584;2022-10-16T15:35:58;20.00;54.30
67769;DHT22;54569;52.018;5.584;2022-10-16T15:38:24;20.00;54.40
67769;DHT22;54569;52.018;5.584;2022-10-16T15:40:51;19.90;54.70
67769;DHT22;54569;52.018;5.584;2022-10-16T15:43:17;19.80;54.90
67769;DHT22;54569;52.018;5.584;2022-10-16T15:45:44;19.80;55.20
67769;DHT22;54569;52.018;5.584;2022-10-16T15:48:17;19.70;55.50
67769;DHT22;54569;52.018;5.584;2022-10-16T15:50:43;19.70;55.70
67769;DHT22;54569;52.018;5.584;2022-10-16T15:53:09;19.60;56.00
67769;DHT22;54569;52.018;5.584;2022-10-16T15:55:34;19.50;56.10
67769;DHT22;54569;52.018;5.584;2022-10-16T15:58:03;19.40;57.00
67769;DHT22;54569;52.018;5.584;2022-10-16T16:00:29;19.30;57.10
67769;DHT22;54569;52.018;5.584;2022-10-16T16:02:55;19.20;57.50
67769;DHT22;54569;52.018;5.584;2022-10-16T16:05:22;19.20;58.30
67769;DHT22;54569;52.018;5.584;2022-10-16T16:07:48;19.00;59.20
67769;DHT22;54569;52.018;5.584;2022-10-16T16:10:13;18.90;58.70
67769;DHT22;54569;52.018;5.584;2022-10-16T16:12:46;18.90;58.80
67769;DHT22;54569;52.018;5.584;2022-10-16T16:15:15;18.90;59.40
67769;DHT22;54569;52.018;5.584;2022-10-16T16:17:40;18.80;59.60
67769;DHT22;54569;52.018;5.584;2022-10-16T16:20:07;18.70;59.50
67769;DHT22;54569;52.018;5.584;2022-10-16T16:22:33;18.60;59.80
67769;DHT22;54569;52.018;5.584;2022-10-16T16:24:58;18.60;60.00
67769;DHT22;54569;52.018;5.584;2022-10-16T16:27:24;18.50;60.10
67769;DHT22;54569;52.018;5.584;2022-10-16T16:29:50;18.50;60.50
67769;DHT22;54569;52.018;5.584;2022-10-16T16:32:16;18.40;60.90
67769;DHT22;54569;52.018;5.584;2022-10-16T16:34:41;18.30;61.10
67769;DHT22;54569;52.018;5.584;2022-10-16T16:37:07;18.20;61.40
67769;DHT22;54569;52.018;5.584;2022-10-16T16:39:33;18.20;61.50
67769;DHT22;54569;52.018;5.584;2022-10-16T16:41:59;18.10;61.40
67769;DHT22;54569;52.018;5.584;2022-10-16T16:44:25;18.10;61.80
67769;DHT22;54569;52.018;5.584;2022-10-16T16:46:52;18.00;61.60
67769;DHT22;54569;52.018;5.584;2022-10-16T16:49:18;18.00;61.50
67769;DHT22;54569;52.018;5.584;2022-10-16T16:51:43;17.90;61.70
67769;DHT22;54569;52.018;5.584;2022-10-16T16:54:10;17.90;61.70
67769;DHT22;54569;52.018;5.584;2022-10-16T16:56:38;17.80;61.80
67769;DHT22;54569;52.018;5.584;2022-10-16T16:59:04;17.80;61.80
67769;DHT22;54569;52.018;5.584;2022-10-16T17:01:30;17.80;62.20
67769;DHT22;54569;52.018;5.584;2022-10-16T17:04:03;17.80;62.50
67769;DHT22;54569;52.018;5.584;2022-10-16T17:06:29;17.70;63.00
67769;DHT22;54569;52.018;5.584;2022-10-16T17:08:55;17.60;63.20
67769;DHT22;54569;52.018;5.584;2022-10-16T17:11:23;17.60;63.60
67769;DHT22;54569;52.018;5.584;2022-10-16T17:13:49;17.50;63.80
67769;DHT22;54569;52.018;5.584;2022-10-16T17:16:15;17.40;64.60
67769;DHT22;54569;52.018;5.584;2022-10-16T17:18:41;17.40;64.10
67769;DHT22;54569;52.018;5.584;2022-10-16T17:21:08;17.30;64.20
67769;DHT22;54569;52.018;5.584;2022-10-16T17:23:35;17.30;64.20
67769;DHT22;54569;52.018;5.584;2022-10-16T17:26:06;17.20;64.40
67769;DHT22;54569;52.018;5.584;2022-10-16T17:28:32;17.30;64.50
67769;DHT22;54569;52.018;5.584;2022-10-16T17:33:33;17.20;64.70